KSTK

Sterling Municipal Airport

Sterling, Colorado, USA
METAR KSTK 231000Z AUTO 00000KT 10SM CLR 02/00 A3027 RMK AO2
Observed Flight Rules
Oct-23 @ 10:00 UTC (17 minutes ago) Visual Flight Rules
Visibility Clouds
10 miles
  • Clear skies
Temperatures Readings
Current 2°C / 36°F
Dewpoint 0°C / 32°F
Humidity 87%
Altimeter 30.27" Hg
Pressure 1025 hPa
Elevation 1231
METAR KSTK 231000Z AUTO 00000KT 10SM CLR 02/00 A3027 RMK AO2
Observed Flight Rules
Oct-23 @ 10:00 UTC
(17 minutes ago)
VFR
Clouds
  • Clear skies
Temperature Dewpoint
2°C / 36°F 0°C / 32°F
Humidity Altimeter Pressure
87% 30.27" Hg 1025 hPa